Agana Heights, Guam
Current Conditions -  °F | °C
As of 9:54 AM on Saturday 25 Oct 2014 (Local Time) from PGUM Reporting Station
Few Clouds Few Clouds  
Wind Chill: 87°   Ceiling: Unl
Heat Index: 99°   Visibility: 10mi
Dew Point: 77°   Wind: 10mph
Humidity: 72%   Direction: 90°E
Pressure: 29.93"   Gusts: NA
Location:  13.47°N, 144.74°E
Report Text: PGUM 242354Z 09009KT 10SM FEW019 31/25 A2993 RMK AO2 SLP128 60000 T03060250 10311 20261 51008 $
Loading
Personal Weather Stations






























Interactive Weather Map
Tropical Storm Tracking
New forecast layout! Learn more

10-Day Weather Forecast

Advertisements
Track Severe Weather on mobile